Time;durP1;ratioP1;P1;durP2;ratioP2;P2;SDS_P1;SDS_P2;PMS_P1;PMS_P2;Temp;Humidity;BMP_temperature;BMP_pressure;BME280_temperature;BME280_humidity;BME280_pressure;Samples;Min_cycle;Max_cycle;Signal;HPM_P1;HPM_P2
2022/09/24 00:00:28;;;;;;;;;;;12.10;59.00;;;;;;5020236;28;92039;-39
2022/09/24 00:02:54;;;;;;;;;;;12.00;59.00;;;;;;5021122;28;92994;-39
2022/09/24 00:05:19;;;;;;;;;;;12.00;58.90;;;;;;5021363;28;92142;-39
2022/09/24 00:07:45;;;;;;;;;;;12.00;58.90;;;;;;5023971;28;92687;-37
2022/09/24 00:10:11;;;;;;;;;;;12.00;58.80;;;;;;5020992;28;91984;-39
2022/09/24 00:12:37;;;;;;;;;;;12.00;59.00;;;;;;5021804;28;92351;-39
2022/09/24 00:15:03;;;;;;;;;;;12.00;58.90;;;;;;5020802;28;93257;-39
2022/09/24 00:17:28;;;;;;;;;;;12.00;58.80;;;;;;5021460;28;92183;-39
2022/09/24 00:19:54;;;;;;;;;;;12.00;58.80;;;;;;5020817;28;93396;-39
2022/09/24 00:22:19;;;;;;;;;;;12.00;58.80;;;;;;5020723;28;93173;-39
2022/09/24 00:27:29;;;;;;;;;;;12.00;58.80;;;;;;5021196;28;91983;-39
2022/09/24 00:29:54;;;;;;;;;;;11.90;58.80;;;;;;5023745;28;93086;-39
2022/09/24 00:32:22;;;;;;;;;;;11.90;58.80;;;;;;5021079;28;92312;-39
2022/09/24 00:34:49;;;;;;;;;;;11.90;58.90;;;;;;5020385;28;93024;-39
2022/09/24 00:37:15;;;;;;;;;;;11.90;58.80;;;;;;5021309;28;91254;-39
2022/09/24 00:39:40;;;;;;;;;;;11.90;58.80;;;;;;5021269;28;92053;-39
2022/09/24 00:42:06;;;;;;;;;;;11.90;58.80;;;;;;5020299;28;93481;-39
2022/09/24 00:44:43;;;;;;;;;;;11.90;58.70;;;;;;5020086;28;93136;-39
2022/09/24 00:47:15;;;;;;;;;;;11.80;58.70;;;;;;5020936;28;93315;-39
2022/09/24 00:49:41;;;;;;;;;;;11.80;58.80;;;;;;5020441;28;93115;-39
2022/09/24 00:52:07;;;;;;;;;;;11.80;58.70;;;;;;5023648;28;91923;-39
2022/09/24 00:54:32;;;;;;;;;;;11.80;58.60;;;;;;5020185;28;92864;-39
2022/09/24 00:56:59;;;;;;;;;;;11.80;58.80;;;;;;5020756;28;91958;-39
2022/09/24 00:59:24;;;;;;;;;;;11.80;58.70;;;;;;5020700;28;92342;-39
2022/09/24 01:01:52;;;;;;;;;;;11.70;58.80;;;;;;5020605;28;92559;-39
2022/09/24 01:04:21;;;;;;;;;;;11.70;58.70;;;;;;5020555;28;92821;-39
2022/09/24 01:06:47;;;;;;;;;;;11.70;58.70;;;;;;5020581;28;91936;-39
2022/09/24 01:09:13;;;;;;;;;;;11.70;58.70;;;;;;5018976;28;94001;-39
2022/09/24 01:11:57;;;;;;;;;;;11.70;58.60;;;;;;5023180;28;92071;-39
2022/09/24 01:14:32;;;;;;;;;;;11.70;58.60;;;;;;5020152;28;93478;-39
2022/09/24 01:16:57;;;;;;;;;;;11.70;58.60;;;;;;5020450;28;92084;-39
2022/09/24 01:19:29;;;;;;;;;;;11.60;58.60;;;;;;5020306;28;92217;-39
2022/09/24 01:22:10;;;;;;;;;;;11.60;58.80;;;;;;5019881;28;93043;-39
2022/09/24 01:24:41;;;;;;;;;;;11.60;58.80;;;;;;5020322;28;92090;-39
2022/09/24 01:27:07;;;;;;;;;;;11.50;58.80;;;;;;5019227;28;95118;-39
2022/09/24 01:29:40;;;;;;;;;;;11.50;58.60;;;;;;5019474;28;93114;-39
2022/09/24 01:32:24;;;;;;;;;;;11.50;58.80;;;;;;5020301;28;92089;-39
2022/09/24 01:34:56;;;;;;;;;;;11.50;58.70;;;;;;5022158;28;92946;-39
2022/09/24 01:37:22;;;;;;;;;;;11.50;58.50;;;;;;5019938;28;92078;-39
2022/09/24 01:39:49;;;;;;;;;;;11.50;58.60;;;;;;5019934;28;92310;-39
2022/09/24 01:42:15;;;;;;;;;;;11.50;58.60;;;;;;5019449;28;92327;-39
2022/09/24 01:44:43;;;;;;;;;;;11.50;58.60;;;;;;5019990;28;92094;-39
2022/09/24 01:47:11;;;;;;;;;;;11.50;58.50;;;;;;5019826;28;92427;-39
2022/09/24 01:49:36;;;;;;;;;;;11.40;58.70;;;;;;5019265;28;93526;-39
2022/09/24 01:52:03;;;;;;;;;;;11.50;58.60;;;;;;5020405;28;91365;-39
2022/09/24 01:54:34;;;;;;;;;;;11.50;59.20;;;;;;5019875;28;91976;-39
2022/09/24 01:57:23;;;;;;;;;;;11.40;58.60;;;;;;5022340;28;92981;-37
2022/09/24 01:59:48;;;;;;;;;;;11.40;59.20;;;;;;5012900;28;93106;-39
2022/09/24 02:02:17;;;;;;;;;;;11.40;58.50;;;;;;5019293;28;93068;-39
2022/09/24 02:04:44;;;;;;;;;;;11.40;58.60;;;;;;5019616;28;92099;-39
2022/09/24 02:07:13;;;;;;;;;;;11.30;58.50;;;;;;5019465;28;92495;-39
2022/09/24 02:09:40;;;;;;;;;;;11.30;58.40;;;;;;5018465;28;93056;-39
2022/09/24 02:12:08;;;;;;;;;;;11.30;58.50;;;;;;5019280;28;92179;-39
2022/09/24 02:14:37;;;;;;;;;;;11.30;58.60;;;;;;5019675;28;92321;-39
2022/09/24 02:17:03;;;;;;;;;;;11.30;58.60;;;;;;5019367;28;92342;-39
2022/09/24 02:19:30;;;;;;;;;;;11.30;58.50;;;;;;5022435;28;92129;-39
2022/09/24 02:21:56;;;;;;;;;;;11.20;58.40;;;;;;5018733;28;92623;-39
2022/09/24 02:24:25;;;;;;;;;;;11.30;58.60;;;;;;5017812;28;93111;-39
2022/09/24 02:26:50;;;;;;;;;;;11.20;58.60;;;;;;5019186;28;92517;-39
2022/09/24 02:29:17;;;;;;;;;;;11.20;58.50;;;;;;5019006;28;92314;-39
2022/09/24 02:31:46;;;;;;;;;;;11.20;59.00;;;;;;5019152;28;92128;-39
2022/09/24 02:34:20;;;;;;;;;;;11.20;58.50;;;;;;5019148;28;92406;-39
2022/09/24 02:36:46;;;;;;;;;;;11.20;58.50;;;;;;5018996;28;93078;-39
2022/09/24 02:39:12;;;;;;;;;;;11.10;58.60;;;;;;5019158;28;92102;-39
2022/09/24 02:41:38;;;;;;;;;;;11.20;58.60;;;;;;5022035;28;92391;-39
2022/09/24 02:44:04;;;;;;;;;;;11.10;58.40;;;;;;5019105;28;92106;-39
2022/09/24 02:46:29;;;;;;;;;;;11.10;58.40;;;;;;5019030;28;92449;-39
2022/09/24 02:48:56;;;;;;;;;;;11.10;58.30;;;;;;5017969;28;93157;-39
2022/09/24 02:51:22;;;;;;;;;;;11.10;58.50;;;;;;5018739;28;92130;-39
2022/09/24 02:53:47;;;;;;;;;;;11.00;58.50;;;;;;5019212;28;92538;-39
2022/09/24 02:56:13;;;;;;;;;;;11.00;58.50;;;;;;5018494;28;93257;-39
2022/09/24 02:58:38;;;;;;;;;;;11.00;58.50;;;;;;5018859;28;92131;-39
2022/09/24 03:01:04;;;;;;;;;;;11.00;58.50;;;;;;5021577;28;92414;-39
2022/09/24 03:03:30;;;;;;;;;;;10.90;58.50;;;;;;5018631;28;92125;-39
2022/09/24 03:05:56;;;;;;;;;;;11.00;58.50;;;;;;5019285;28;92137;-39
2022/09/24 03:08:23;;;;;;;;;;;11.00;58.50;;;;;;5017932;28;93159;-39
2022/09/24 03:10:49;;;;;;;;;;;10.90;58.50;;;;;;5018998;28;91958;-39
2022/09/24 03:13:16;;;;;;;;;;;11.00;58.50;;;;;;5018300;28;93098;-39
2022/09/24 03:15:44;;;;;;;;;;;10.90;58.40;;;;;;5017873;28;94250;-39
2022/09/24 03:18:09;;;;;;;;;;;10.90;58.40;;;;;;5018821;28;92095;-39
2022/09/24 03:20:35;;;;;;;;;;;10.90;58.40;;;;;;5018650;28;92441;-39
2022/09/24 03:23:00;;;;;;;;;;;10.90;58.40;;;;;;5021330;28;93191;-39
2022/09/24 03:25:26;;;;;;;;;;;10.90;58.40;;;;;;5018648;28;92523;-39
2022/09/24 03:27:51;;;;;;;;;;;10.90;58.30;;;;;;5018248;28;93249;-39
2022/09/24 03:33:01;;;;;;;;;;;10.80;58.40;;;;;;5018524;28;92153;-39
2022/09/24 03:35:26;;;;;;;;;;;10.80;58.40;;;;;;5019940;28;93141;-39
2022/09/24 03:37:52;;;;;;;;;;;10.70;58.40;;;;;;5021386;28;93089;-39
2022/09/24 03:40:17;;;;;;;;;;;10.80;58.50;;;;;;5022014;28;92536;-39
2022/09/24 03:42:43;;;;;;;;;;;10.80;58.50;;;;;;5021306;28;92956;-39
2022/09/24 03:45:08;;;;;;;;;;;10.80;58.30;;;;;;5024897;28;92154;-39
2022/09/24 03:47:34;;;;;;;;;;;10.80;58.40;;;;;;5021337;28;93137;-39
2022/09/24 03:50:00;;;;;;;;;;;10.80;58.30;;;;;;5021736;28;92165;-39
2022/09/24 03:52:25;;;;;;;;;;;10.70;58.30;;;;;;5021811;28;92472;-39
2022/09/24 03:54:51;;;;;;;;;;;10.70;58.20;;;;;;5021706;28;92424;-39
2022/09/24 03:57:16;;;;;;;;;;;10.70;58.30;;;;;;5021853;28;92146;-39
2022/09/24 03:59:43;;;;;;;;;;;10.70;58.40;;;;;;5021715;28;92381;-39
2022/09/24 04:02:09;;;;;;;;;;;10.60;58.30;;;;;;5020356;28;93828;-39
2022/09/24 04:04:34;;;;;;;;;;;10.70;58.30;;;;;;5021487;28;92166;-39
2022/09/24 04:07:00;;;;;;;;;;;10.60;58.40;;;;;;5024087;28;92543;-39
2022/09/24 04:09:25;;;;;;;;;;;10.60;58.50;;;;;;5021012;28;92662;-39
2022/09/24 04:11:52;;;;;;;;;;;10.60;58.40;;;;;;5021456;28;92524;-39
2022/09/24 04:14:18;;;;;;;;;;;10.60;58.40;;;;;;5020800;28;93084;-39
2022/09/24 04:16:44;;;;;;;;;;;10.60;58.30;;;;;;5021381;28;92632;-39
2022/09/24 04:19:10;;;;;;;;;;;10.60;58.20;;;;;;5021690;28;92321;-39
2022/09/24 04:21:36;;;;;;;;;;;10.60;58.90;;;;;;5020856;28;93037;-39
2022/09/24 04:24:02;;;;;;;;;;;10.50;58.40;;;;;;5021199;28;92110;-39
2022/09/24 04:26:27;;;;;;;;;;;10.60;58.30;;;;;;5020572;28;92975;-39
2022/09/24 04:28:53;;;;;;;;;;;10.50;58.40;;;;;;5023923;28;93197;-39
2022/09/24 04:31:19;;;;;;;;;;;10.60;58.10;;;;;;5021189;28;92451;-39
2022/09/24 04:33:44;;;;;;;;;;;10.50;58.30;;;;;;5020432;28;92986;-39
2022/09/24 04:36:10;;;;;;;;;;;10.50;58.20;;;;;;5020957;28;91960;-39
2022/09/24 04:38:35;;;;;;;;;;;10.50;58.20;;;;;;5021272;28;92419;-39
2022/09/24 04:41:05;;;;;;;;;;;10.50;58.20;;;;;;5020234;28;92437;-39
2022/09/24 04:43:32;;;;;;;;;;;10.50;58.10;;;;;;5021449;28;91273;-39
2022/09/24 04:45:58;;;;;;;;;;;10.40;58.20;;;;;;5020016;28;91984;-39
2022/09/24 04:48:23;;;;;;;;;;;10.40;58.20;;;;;;5020210;28;93161;-39
2022/09/24 04:50:49;;;;;;;;;;;10.40;58.10;;;;;;5023358;28;93038;-39
2022/09/24 04:53:14;;;;;;;;;;;10.40;58.10;;;;;;5020403;28;92238;-39
2022/09/24 04:55:40;;;;;;;;;;;10.40;58.20;;;;;;5020799;28;92133;-39
2022/09/24 04:58:06;;;;;;;;;;;10.40;58.10;;;;;;5020771;28;92368;-39
2022/09/24 05:00:32;;;;;;;;;;;10.40;58.10;;;;;;5020070;28;93008;-39
2022/09/24 05:02:58;;;;;;;;;;;10.30;58.20;;;;;;5020660;28;92251;-39
2022/09/24 05:05:24;;;;;;;;;;;10.30;58.20;;;;;;5019082;28;92968;-39
2022/09/24 05:07:51;;;;;;;;;;;10.30;58.10;;;;;;5020648;28;92371;-39
2022/09/24 05:10:17;;;;;;;;;;;10.30;58.10;;;;;;5023343;28;92179;-39
2022/09/24 05:12:42;;;;;;;;;;;10.30;58.10;;;;;;5019996;28;93208;-39
2022/09/24 05:15:08;;;;;;;;;;;10.30;58.10;;;;;;5019761;28;93459;-39
2022/09/24 05:17:37;;;;;;;;;;;10.30;58.00;;;;;;5020349;28;93372;-39
2022/09/24 05:20:02;;;;;;;;;;;10.30;57.90;;;;;;5019782;28;92960;-39
2022/09/24 05:22:28;;;;;;;;;;;10.30;57.90;;;;;;5020512;28;92216;-39
2022/09/24 05:24:54;;;;;;;;;;;10.30;57.90;;;;;;5020586;28;92336;-39
2022/09/24 05:27:21;;;;;;;;;;;10.30;57.90;;;;;;5019650;28;93087;-39
2022/09/24 05:29:46;;;;;;;;;;;10.30;57.90;;;;;;5020208;28;92602;-39
2022/09/24 05:32:17;;;;;;;;;;;10.30;58.00;;;;;;5023266;28;92463;-39
2022/09/24 05:34:43;;;;;;;;;;;10.30;57.80;;;;;;5020202;28;92122;-39
2022/09/24 05:37:09;;;;;;;;;;;10.30;57.90;;;;;;5019950;28;92407;-39
2022/09/24 05:39:35;;;;;;;;;;;10.30;57.90;;;;;;5018842;28;94145;-39
2022/09/24 05:42:02;;;;;;;;;;;10.30;58.00;;;;;;5020112;28;92271;-39
2022/09/24 05:44:28;;;;;;;;;;;10.30;57.80;;;;;;5019901;28;92724;-39
2022/09/24 05:46:54;;;;;;;;;;;10.20;57.90;;;;;;5019233;28;92999;-39
2022/09/24 05:49:19;;;;;;;;;;;10.20;58.00;;;;;;5019954;28;92189;-39
2022/09/24 05:51:46;;;;;;;;;;;10.30;57.90;;;;;;5019946;28;92382;-39
2022/09/24 05:54:12;;;;;;;;;;;10.20;57.90;;;;;;5022425;28;93260;-39
2022/09/24 05:56:37;;;;;;;;;;;10.20;58.00;;;;;;5020218;28;92637;-39
2022/09/24 05:59:03;;;;;;;;;;;10.20;58.00;;;;;;5019264;28;93048;-39
2022/09/24 06:01:28;;;;;;;;;;;10.20;58.00;;;;;;5019645;28;92211;-39
2022/09/24 06:03:57;;;;;;;;;;;10.20;58.00;;;;;;5019122;28;92994;-39
2022/09/24 06:06:26;;;;;;;;;;;10.20;58.00;;;;;;5019047;28;92688;-39
2022/09/24 06:08:52;;;;;;;;;;;10.20;58.10;;;;;;5019365;28;92100;-39
2022/09/24 06:11:18;;;;;;;;;;;10.20;58.20;;;;;;5019667;28;92692;-39
2022/09/24 06:13:43;;;;;;;;;;;10.20;58.10;;;;;;5018813;28;93094;-39
2022/09/24 06:16:11;;;;;;;;;;;10.20;58.10;;;;;;5022500;28;92082;-39
2022/09/24 06:18:38;;;;;;;;;;;10.10;58.20;;;;;;5018865;28;93001;-39
2022/09/24 06:21:08;;;;;;;;;;;10.10;58.20;;;;;;5019854;28;91380;-39
2022/09/24 06:23:35;;;;;;;;;;;10.10;58.20;;;;;;5019561;28;92565;-39
2022/09/24 06:26:00;;;;;;;;;;;10.10;58.20;;;;;;5018864;28;92966;-39
2022/09/24 06:28:26;;;;;;;;;;;10.00;58.30;;;;;;5018729;28;93069;-39
2022/09/24 06:30:52;;;;;;;;;;;10.10;58.40;;;;;;5019128;28;93325;-39
2022/09/24 06:33:19;;;;;;;;;;;10.10;58.40;;;;;;5018760;28;93104;-39
2022/09/24 06:35:45;;;;;;;;;;;10.00;58.40;;;;;;5019208;28;92082;-39
2022/09/24 06:38:11;;;;;;;;;;;10.00;58.50;;;;;;5021992;28;92173;-39
2022/09/24 06:40:37;;;;;;;;;;;10.00;58.50;;;;;;5019211;28;92265;-39
2022/09/24 06:43:06;;;;;;;;;;;10.00;58.60;;;;;;5018741;28;92376;-39
2022/09/24 06:45:32;;;;;;;;;;;10.00;58.70;;;;;;5019069;28;92319;-39
2022/09/24 06:47:58;;;;;;;;;;;10.00;58.70;;;;;;5018916;28;92130;-39
2022/09/24 06:50:25;;;;;;;;;;;10.00;58.70;;;;;;5019025;28;91976;-39
2022/09/24 06:52:51;;;;;;;;;;;10.00;58.70;;;;;;5017657;28;94108;-39
2022/09/24 06:55:17;;;;;;;;;;;10.00;58.80;;;;;;5019011;28;92185;-39
2022/09/24 06:57:43;;;;;;;;;;;10.00;58.90;;;;;;5018940;28;91929;-39
2022/09/24 07:00:09;;;;;;;;;;;9.90;58.90;;;;;;5021323;28;93126;-39
2022/09/24 07:02:34;;;;;;;;;;;9.90;58.90;;;;;;5018756;28;92632;-39
2022/09/24 07:05:00;;;;;;;;;;;9.90;58.90;;;;;;5018290;28;93034;-39
2022/09/24 07:07:28;;;;;;;;;;;10.00;58.90;;;;;;5019126;28;93358;-39
2022/09/24 07:09:54;;;;;;;;;;;10.00;58.90;;;;;;5019928;28;92469;-39
2022/09/24 07:12:20;;;;;;;;;;;9.90;59.00;;;;;;5021612;28;92128;-39
2022/09/24 07:14:45;;;;;;;;;;;9.90;59.10;;;;;;5022380;28;92225;-39
2022/09/24 07:17:11;;;;;;;;;;;9.90;59.20;;;;;;5021846;28;92823;-39
2022/09/24 07:19:37;;;;;;;;;;;9.90;59.20;;;;;;5024914;28;93201;-39
2022/09/24 07:22:03;;;;;;;;;;;9.80;59.10;;;;;;5022385;28;92335;-39
2022/09/24 07:24:28;;;;;;;;;;;9.80;59.40;;;;;;5021563;28;93199;-39
2022/09/24 07:26:54;;;;;;;;;;;9.80;59.40;;;;;;5022237;28;92148;-39
2022/09/24 07:29:19;;;;;;;;;;;9.80;59.60;;;;;;5021891;28;92479;-39
2022/09/24 07:31:45;;;;;;;;;;;9.80;59.90;;;;;;5021660;28;93287;-39
2022/09/24 07:34:10;;;;;;;;;;;9.70;59.80;;;;;;5022576;28;91511;-39
2022/09/24 07:36:36;;;;;;;;;;;9.70;59.90;;;;;;5022244;28;92047;-39
2022/09/24 07:39:02;;;;;;;;;;;9.80;59.80;;;;;;5021501;28;93068;-39
2022/09/24 07:41:28;;;;;;;;;;;9.70;60.00;;;;;;5024335;28;93010;-39
2022/09/24 07:43:54;;;;;;;;;;;9.80;59.80;;;;;;5021207;28;93602;-39
2022/09/24 07:46:20;;;;;;;;;;;9.90;59.60;;;;;;5021915;28;92244;-39
2022/09/24 07:48:48;;;;;;;;;;;9.90;59.60;;;;;;5021961;28;92501;-39
2022/09/24 07:51:13;;;;;;;;;;;9.90;59.60;;;;;;5021290;28;93014;-39
2022/09/24 07:53:39;;;;;;;;;;;9.90;59.60;;;;;;5021888;28;92116;-39
2022/09/24 07:56:04;;;;;;;;;;;9.90;59.50;;;;;;5021942;28;92528;-39
2022/09/24 07:58:30;;;;;;;;;;;9.90;59.60;;;;;;5021628;28;92269;-39
2022/09/24 08:01:00;;;;;;;;;;;9.90;59.70;;;;;;5021546;28;92496;-39
2022/09/24 08:03:25;;;;;;;;;;;9.90;59.60;;;;;;5024041;28;92196;-39
2022/09/24 08:05:56;;;;;;;;;;;9.90;59.60;;;;;;5020877;28;93096;-39
2022/09/24 08:08:21;;;;;;;;;;;9.90;59.70;;;;;;5020649;28;93305;-39
2022/09/24 08:10:47;;;;;;;;;;;9.90;59.80;;;;;;5020929;28;92994;-39
2022/09/24 08:13:13;;;;;;;;;;;9.90;59.80;;;;;;5021102;28;92125;-39
2022/09/24 08:15:39;;;;;;;;;;;10.00;59.80;;;;;;5021458;28;92548;-39
2022/09/24 08:18:04;;;;;;;;;;;10.00;59.80;;;;;;5020970;28;93115;-39
2022/09/24 08:20:31;;;;;;;;;;;10.00;59.80;;;;;;5020885;28;92142;-39
2022/09/24 08:23:01;;;;;;;;;;;10.00;60.00;;;;;;5021061;28;92483;-39
2022/09/24 08:25:26;;;;;;;;;;;10.00;59.90;;;;;;5023588;28;93160;-39
2022/09/24 08:27:52;;;;;;;;;;;10.00;59.90;;;;;;5021325;28;92500;-39
2022/09/24 08:30:17;;;;;;;;;;;10.00;59.90;;;;;;5019999;28;94465;-39
2022/09/24 08:32:47;;;;;;;;;;;10.00;59.90;;;;;;5021179;28;92732;-39
2022/09/24 08:35:14;;;;;;;;;;;10.00;59.90;;;;;;5019631;28;95517;-39
2022/09/24 08:37:40;;;;;;;;;;;10.00;59.80;;;;;;5020556;28;93226;-39
2022/09/24 08:40:06;;;;;;;;;;;10.00;59.80;;;;;;5020946;28;92159;-39
2022/09/24 08:42:34;;;;;;;;;;;10.00;59.80;;;;;;5021049;28;92433;-39
2022/09/24 08:47:49;;;;;;;;;;;10.00;59.90;;;;;;5024535;28;91337;-39
2022/09/24 08:50:23;;;;;;;;;;;10.00;60.00;;;;;;5020277;28;92992;-39
2022/09/24 08:52:52;;;;;;;;;;;10.10;60.00;;;;;;5020918;28;92057;-39
2022/09/24 08:55:20;;;;;;;;;;;10.10;59.90;;;;;;5019917;28;92996;-39
2022/09/24 08:57:54;;;;;;;;;;;10.10;59.90;;;;;;5020143;28;93329;-39
2022/09/24 09:00:20;;;;;;;;;;;10.10;60.00;;;;;;5020590;28;92018;-39
2022/09/24 09:02:51;;;;;;;;;;;10.10;60.00;;;;;;5020662;28;92481;-39
2022/09/24 09:05:23;;;;;;;;;;;10.20;59.90;;;;;;5019972;28;92923;-39
2022/09/24 09:07:52;;;;;;;;;;;10.20;60.00;;;;;;5020207;28;91997;-39
2022/09/24 09:10:30;;;;;;;;;;;10.10;59.90;;;;;;5023050;28;91944;-39
2022/09/24 09:12:57;;;;;;;;;;;10.20;60.00;;;;;;5021052;28;91387;-39
2022/09/24 09:15:28;;;;;;;;;;;10.20;59.90;;;;;;5020363;28;92051;-39
2022/09/24 09:17:58;;;;;;;;;;;10.20;59.80;;;;;;5020065;28;93394;-39
2022/09/24 09:20:34;;;;;;;;;;;10.20;59.90;;;;;;5019622;28;93087;-39
2022/09/24 09:23:04;;;;;;;;;;;10.20;59.90;;;;;;5020443;28;93416;-39
2022/09/24 09:25:32;;;;;;;;;;;10.20;60.10;;;;;;5019549;28;93087;-39
2022/09/24 09:28:03;;;;;;;;;;;10.30;60.00;;;;;;5019955;28;92153;-39
2022/09/24 09:30:35;;;;;;;;;;;10.30;60.00;;;;;;5022523;28;92504;-39
2022/09/24 09:33:11;;;;;;;;;;;10.30;60.00;;;;;;5019814;28;92095;-39
2022/09/24 09:35:57;;;;;;;;;;;10.30;60.00;;;;;;5020488;28;92476;-39
2022/09/24 09:38:28;;;;;;;;;;;10.30;60.00;;;;;;5019253;28;92302;-39
2022/09/24 09:41:26;;;;;;;;;;;10.30;60.00;;;;;;5019648;28;92138;-39
2022/09/24 09:43:59;;;;;;;;;;;10.40;60.00;;;;;;4996639;28;92522;-39
2022/09/24 09:46:27;;;;;;;;;;;10.40;60.00;;;;;;5018825;28;94169;-39
2022/09/24 09:48:55;;;;;;;;;;;10.40;59.90;;;;;;5019997;28;92118;-39
2022/09/24 09:51:23;;;;;;;;;;;10.30;60.10;;;;;;5019580;28;92808;-39
2022/09/24 09:53:55;;;;;;;;;;;10.40;60.10;;;;;;5022281;28;92282;-39
2022/09/24 09:56:25;;;;;;;;;;;10.40;59.90;;;;;;5019466;28;94055;-39
2022/09/24 09:59:00;;;;;;;;;;;10.50;59.90;;;;;;5019288;28;92066;-39
2022/09/24 10:01:30;;;;;;;;;;;10.50;59.80;;;;;;5019738;28;92051;-39
2022/09/24 10:03:57;;;;;;;;;;;10.50;59.90;;;;;;5019861;28;92561;-39
2022/09/24 10:06:24;;;;;;;;;;;10.50;59.80;;;;;;5019077;28;92959;-39
2022/09/24 10:08:49;;;;;;;;;;;10.50;59.80;;;;;;5018993;28;92238;-39
2022/09/24 10:11:15;;;;;;;;;;;10.50;59.80;;;;;;5019205;28;93082;-39
2022/09/24 10:13:41;;;;;;;;;;;10.50;59.90;;;;;;5019121;28;93379;-39
2022/09/24 10:16:08;;;;;;;;;;;10.60;60.00;;;;;;5022658;28;92151;-39
2022/09/24 10:18:52;;;;;;;;;;;10.50;59.90;;;;;;5018730;28;93077;-39
2022/09/24 10:21:29;;;;;;;;;;;10.50;59.90;;;;;;5019594;28;92078;-39
2022/09/24 10:23:58;;;;;;;;;;;10.60;60.00;;;;;;5019419;28;92598;-39
2022/09/24 10:26:32;;;;;;;;;;;10.60;60.00;;;;;;5018490;28;94879;-39
2022/09/24 10:31:44;;;;;;;;;;;10.60;59.90;;;;;;5019465;28;91891;-39
2022/09/24 10:34:27;;;;;;;;;;;10.70;60.00;;;;;;5018956;28;93159;-39
2022/09/24 10:37:03;;;;;;;;;;;10.70;60.00;;;;;;5018575;28;93019;-39
2022/09/24 10:39:29;;;;;;;;;;;10.70;59.90;;;;;;5021620;28;92472;-39
2022/09/24 10:41:58;;;;;;;;;;;10.70;59.80;;;;;;5018997;28;92544;-39
2022/09/24 10:44:27;;;;;;;;;;;10.70;59.80;;;;;;5017958;28;92543;-39
2022/09/24 10:46:58;;;;;;;;;;;10.70;59.70;;;;;;5018489;28;92238;-39
2022/09/24 10:49:39;;;;;;;;;;;10.70;59.70;;;;;;5019046;28;92157;-39
2022/09/24 10:52:21;;;;;;;;;;;10.80;59.80;;;;;;5018943;28;92652;-39
2022/09/24 10:55:10;;;;;;;;;;;10.80;59.80;;;;;;5018994;28;92320;-39
2022/09/24 10:57:38;;;;;;;;;;;10.80;59.70;;;;;;5012785;28;92225;-39
2022/09/24 11:00:14;;;;;;;;;;;10.80;59.70;;;;;;5019020;28;92405;-39
2022/09/24 11:02:40;;;;;;;;;;;10.90;59.60;;;;;;5020667;28;94075;-39
2022/09/24 11:05:16;;;;;;;;;;;10.90;59.60;;;;;;5018967;28;93427;-39
2022/09/24 11:07:49;;;;;;;;;;;10.90;59.50;;;;;;5018298;28;93084;-39
2022/09/24 11:10:40;;;;;;;;;;;11.00;59.60;;;;;;5018541;28;92128;-39
2022/09/24 11:13:15;;;;;;;;;;;11.00;59.50;;;;;;5001932;28;92949;-39
2022/09/24 11:15:43;;;;;;;;;;;11.00;59.50;;;;;;5018259;28;93229;-39
2022/09/24 11:18:09;;;;;;;;;;;11.00;59.50;;;;;;5019007;28;92163;-39
2022/09/24 11:20:38;;;;;;;;;;;11.00;59.40;;;;;;5019199;28;92539;-39
2022/09/24 11:23:22;;;;;;;;;;;11.10;59.70;;;;;;5018256;28;92843;-39
2022/09/24 11:26:19;;;;;;;;;;;11.10;59.80;;;;;;5021659;28;92063;-39
2022/09/24 11:28:45;;;;;;;;;;;11.10;59.50;;;;;;4993912;28;93873;-39
2022/09/24 11:31:23;;;;;;;;;;;11.20;59.50;;;;;;5018506;28;92253;-39
2022/09/24 11:34:04;;;;;;;;;;;11.20;59.50;;;;;;5018509;28;92415;-40
2022/09/24 11:36:29;;;;;;;;;;;11.20;59.40;;;;;;5018141;28;92982;-39
2022/09/24 11:38:56;;;;;;;;;;;11.20;59.70;;;;;;5018602;28;92110;-39
2022/09/24 11:41:21;;;;;;;;;;;11.20;59.50;;;;;;5018693;28;92425;-39
2022/09/24 11:43:47;;;;;;;;;;;11.30;59.70;;;;;;5017899;28;92973;-39
2022/09/24 11:46:18;;;;;;;;;;;11.30;59.70;;;;;;5021930;28;92321;-39
2022/09/24 11:49:02;;;;;;;;;;;11.30;59.50;;;;;;5017986;28;93198;-39
2022/09/24 11:51:45;;;;;;;;;;;11.40;59.60;;;;;;5018254;28;92179;-39
2022/09/24 11:54:23;;;;;;;;;;;11.40;59.60;;;;;;5017778;28;93037;-39
2022/09/24 11:56:50;;;;;;;;;;;11.40;59.60;;;;;;5020204;28;93149;-39
2022/09/24 11:59:48;;;;;;;;;;;11.40;59.30;;;;;;5020185;28;92188;-39
2022/09/24 12:02:31;;;;;;;;;;;11.40;59.40;;;;;;4998274;28;92196;-39
2022/09/24 12:04:57;;;;;;;;;;;11.50;59.50;;;;;;5020949;28;93399;-39
2022/09/24 12:07:28;;;;;;;;;;;11.50;59.60;;;;;;5021419;28;92455;-39
2022/09/24 12:10:02;;;;;;;;;;;11.50;59.40;;;;;;5023884;28;92399;-39
2022/09/24 12:12:37;;;;;;;;;;;11.60;59.30;;;;;;5021845;28;91376;-39
2022/09/24 12:15:11;;;;;;;;;;;11.60;59.30;;;;;;5021341;28;92044;-39
2022/09/24 12:17:47;;;;;;;;;;;11.60;59.40;;;;;;5020856;28;93169;-39
2022/09/24 12:20:19;;;;;;;;;;;11.60;59.60;;;;;;5020773;28;93038;-39
2022/09/24 12:22:47;;;;;;;;;;;11.60;59.70;;;;;;5021366;28;93333;-39
2022/09/24 12:25:12;;;;;;;;;;;11.60;59.40;;;;;;5020522;28;93175;-39
2022/09/24 12:27:38;;;;;;;;;;;11.70;59.60;;;;;;5021192;28;92026;-39
2022/09/24 12:32:54;;;;;;;;;;;11.80;59.50;;;;;;5023830;28;92252;-39
2022/09/24 12:35:20;;;;;;;;;;;11.80;59.50;;;;;;5021260;28;92306;-39
2022/09/24 12:37:48;;;;;;;;;;;11.80;59.40;;;;;;5021129;28;92363;-39
2022/09/24 12:40:16;;;;;;;;;;;11.90;59.50;;;;;;5020820;28;92102;-39
2022/09/24 12:42:48;;;;;;;;;;;11.90;59.50;;;;;;5020362;28;92435;-39
2022/09/24 12:45:20;;;;;;;;;;;11.90;59.50;;;;;;5019463;28;94060;-39
2022/09/24 12:47:50;;;;;;;;;;;11.90;59.50;;;;;;5020772;28;92137;-39
2022/09/24 12:50:37;;;;;;;;;;;12.00;59.50;;;;;;5020970;28;92487;-39
2022/09/24 12:53:21;;;;;;;;;;;12.00;59.40;;;;;;5018876;28;94634;-39
2022/09/24 12:55:46;;;;;;;;;;;12.00;59.40;;;;;;5024100;28;92356;-39
2022/09/24 12:58:25;;;;;;;;;;;13.40;52.90;;;;;;5020122;28;93129;-37
2022/09/24 13:00:52;;;;;;;;;;;13.60;53.00;;;;;;5020520;28;92156;-40
2022/09/24 13:03:29;;;;;;;;;;;13.80;52.00;;;;;;5021199;28;92501;-39
2022/09/24 13:05:58;;;;;;;;;;;14.00;51.60;;;;;;5020135;28;93202;-40
2022/09/24 13:08:25;;;;;;;;;;;14.20;51.00;;;;;;5019389;28;92136;-39
2022/09/24 13:10:55;;;;;;;;;;;14.40;51.20;;;;;;5020244;28;92937;-40
2022/09/24 13:13:31;;;;;;;;;;;14.30;51.00;;;;;;5019819;28;93222;-39
2022/09/24 13:16:02;;;;;;;;;;;14.30;50.00;;;;;;5020738;28;92099;-40
2022/09/24 13:18:28;;;;;;;;;;;14.50;50.10;;;;;;5022911;28;92454;-41
2022/09/24 13:20:59;;;;;;;;;;;14.40;51.00;;;;;;5020410;28;92115;-41
2022/09/24 13:23:26;;;;;;;;;;;14.20;51.10;;;;;;5020626;28;92506;-39
2022/09/24 13:25:55;;;;;;;;;;;14.20;51.70;;;;;;5019814;28;93079;-38
2022/09/24 13:28:24;;;;;;;;;;;14.40;50.30;;;;;;5020871;28;91253;-38
2022/09/24 13:31:02;;;;;;;;;;;14.70;49.10;;;;;;5019984;28;92059;-39
2022/09/24 13:33:28;;;;;;;;;;;14.80;49.90;;;;;;5019923;28;93101;-39
2022/09/24 13:35:53;;;;;;;;;;;15.10;49.00;;;;;;5019465;28;93168;-39
2022/09/24 13:38:21;;;;;;;;;;;15.20;48.80;;;;;;5022801;28;93287;-37
2022/09/24 13:41:09;;;;;;;;;;;15.30;47.40;;;;;;5020125;28;92108;-39
2022/09/24 13:43:56;;;;;;;;;;;15.40;46.90;;;;;;5019549;28;92165;-44
2022/09/24 13:46:22;;;;;;;;;;;15.00;49.50;;;;;;5019534;28;92978;-40
2022/09/24 13:48:52;;;;;;;;;;;14.70;51.50;;;;;;5019928;28;92257;-39
2022/09/24 13:51:21;;;;;;;;;;;14.60;50.90;;;;;;5019996;28;92700;-41
2022/09/24 13:54:00;;;;;;;;;;;14.60;50.50;;;;;;5019867;28;92468;-40
2022/09/24 13:56:26;;;;;;;;;;;14.60;50.60;;;;;;5019820;28;92043;-41
2022/09/24 13:59:02;;;;;;;;;;;14.70;50.30;;;;;;5019827;28;92547;-39
2022/09/24 14:01:29;;;;;;;;;;;14.70;50.10;;;;;;5021764;28;94031;-40
2022/09/24 14:03:57;;;;;;;;;;;14.70;50.00;;;;;;5006499;28;93404;-41
2022/09/24 14:06:32;;;;;;;;;;;14.70;50.30;;;;;;4998629;28;92300;-40
2022/09/24 14:08:59;;;;;;;;;;;14.70;50.10;;;;;;4999561;28;92076;-42
2022/09/24 14:11:25;;;;;;;;;;;14.70;50.40;;;;;;4999632;28;92524;-38
2022/09/24 14:13:53;;;;;;;;;;;14.70;51.90;;;;;;4999153;28;93013;-39
2022/09/24 14:16:23;;;;;;;;;;;14.70;51.10;;;;;;4999465;28;92092;-39
2022/09/24 14:18:59;;;;;;;;;;;14.70;50.80;;;;;;4998937;28;92173;-40
2022/09/24 14:21:33;;;;;;;;;;;14.60;50.70;;;;;;4998995;28;93050;-40
2022/09/24 14:24:01;;;;;;;;;;;14.70;50.70;;;;;;5002535;28;92193;-42
2022/09/24 14:26:30;;;;;;;;;;;14.70;51.00;;;;;;4998063;28;93340;-39
2022/09/24 14:28:56;;;;;;;;;;;14.70;50.20;;;;;;4999452;28;92150;-38
2022/09/24 14:31:22;;;;;;;;;;;14.80;51.40;;;;;;4999222;28;92756;-38
2022/09/24 14:33:48;;;;;;;;;;;14.80;50.80;;;;;;4998753;28;92155;-38
2022/09/24 14:36:14;;;;;;;;;;;14.70;50.80;;;;;;4999291;28;92273;-38
2022/09/24 14:38:55;;;;;;;;;;;14.70;52.30;;;;;;4999179;28;92407;-40
2022/09/24 14:41:22;;;;;;;;;;;14.70;51.90;;;;;;4998706;28;93262;-40